Progranichnoe, Russia
Current Conditions -  °F | °C
As of 1:00 AM on Tuesday 25 Nov 2014 (Local Time) from UHSS Reporting Station
Clear Clear  
Wind Chill: 23°   Ceiling: Unl
Heat Index: 23°   Visibility: 6mi
Dew Point: 21°   Wind: 2mph
Humidity: 93%   Direction: 340°NNW
Pressure: 29.97"   Gusts: NA
Location:  50.4°N, 143.77°E
Report Text: UHSS 241400Z 34001MPS 9999 NSC M05/M06 Q1015 RMK QFE760/1013
Loading
Personal Weather Stations






























Interactive Weather Map New forecast layout! Learn more

10-Day Weather Forecast

Advertisements
Track Severe Weather on mobile